RYR5NB LIBD-LIRP
Flight info
| Callsign | RYR5NB |
|---|---|
| Flight time | 1h 1m |
| Altitude | 38000 |
| Route | TOPNO DCT DOGUS DCT LAKOX DCT KUGIX Y662 AKUTO L12 MAREL |
| Aircraft | B738/M-SDE2E3FGHIRWXY/LB1 |
Departure
| Time | 2026-05-05 10:45 |
|---|---|
| Airport | Bari Karol Wojtyła International Airport (LIBD) |
Arrival
| Time | 2026-05-05 11:47 |
|---|---|
| Airport | Pisa International Airport (LIRP) |
| Time | Latitude | Longitude | Altitude | Speed | Heading |
|---|---|---|---|---|---|
| 2026-05-05 09:53 | 41.13746 | 16.76974 | 133 ft | 0 kts | 194° |
| 2026-05-05 10:35 | 41.13749 | 16.76975 | 133 ft | 2 kts | 194° |
| 2026-05-05 10:36 | 41.13764 | 16.76980 | 132 ft | 2 kts | 194° |
| 2026-05-05 10:36 | 41.13781 | 16.76987 | 132 ft | 2 kts | 209° |
| 2026-05-05 10:36 | 41.13794 | 16.76998 | 132 ft | 2 kts | 221° |
| 2026-05-05 10:36 | 41.13805 | 16.77014 | 131 ft | 2 kts | 235° |
| 2026-05-05 10:37 | 41.13812 | 16.77031 | 130 ft | 0 kts | 248° |
| 2026-05-05 10:37 | 41.13815 | 16.77039 | 130 ft | 0 kts | 250° |
| 2026-05-05 10:37 | 41.13815 | 16.77040 | 130 ft | 0 kts | 250° |
| 2026-05-05 10:39 | 41.13814 | 16.77039 | 130 ft | 0 kts | 250° |
| 2026-05-05 10:40 | 41.13811 | 16.77029 | 130 ft | 1 kts | 250° |
| 2026-05-05 10:40 | 41.13805 | 16.77006 | 131 ft | 3 kts | 250° |
| 2026-05-05 10:40 | 41.13793 | 16.76963 | 132 ft | 5 kts | 249° |
| 2026-05-05 10:40 | 41.13776 | 16.76903 | 134 ft | 7 kts | 249° |
| 2026-05-05 10:41 | 41.13773 | 16.76826 | 135 ft | 10 kts | 289° |
| 2026-05-05 10:41 | 41.13839 | 16.76761 | 136 ft | 12 kts | 357° |
| 2026-05-05 10:41 | 41.13890 | 16.76845 | 134 ft | 13 kts | 70° |
| 2026-05-05 10:41 | 41.13921 | 16.76964 | 131 ft | 14 kts | 70° |
| 2026-05-05 10:42 | 41.14003 | 16.77251 | 123 ft | 18 kts | 69° |
| 2026-05-05 10:42 | 41.14045 | 16.77367 | 121 ft | 11 kts | 40° |
| 2026-05-05 10:42 | 41.14098 | 16.77399 | 120 ft | 7 kts | 19° |
| 2026-05-05 10:43 | 41.14114 | 16.77406 | 119 ft | 0 kts | 16° |
| 2026-05-05 10:43 | 41.14119 | 16.77408 | 119 ft | 2 kts | 16° |
| 2026-05-05 10:43 | 41.14156 | 16.77420 | 119 ft | 8 kts | 5° |
| 2026-05-05 10:44 | 41.14218 | 16.77397 | 118 ft | 6 kts | 328° |
| 2026-05-05 10:44 | 41.14220 | 16.77364 | 119 ft | 0 kts | 249° |
| 2026-05-05 10:44 | 41.14216 | 16.77348 | 119 ft | 7 kts | 249° |
| 2026-05-05 10:44 | 41.14117 | 16.77003 | 127 ft | 73 kts | 249° |
| 2026-05-05 10:45 | 41.13868 | 16.76123 | 147 ft | 129 kts | 250° |
| 2026-05-05 10:45 | 41.13508 | 16.74787 | 305 ft | 162 kts | 249° |
| 2026-05-05 10:45 | 41.13123 | 16.73323 | 900 ft | 165 kts | 246° |
| 2026-05-05 10:45 | 41.12616 | 16.71906 | 1643 ft | 159 kts | 238° |
| 2026-05-05 10:46 | 41.12091 | 16.70597 | 2306 ft | 156 kts | 241° |
| 2026-05-05 10:46 | 41.11697 | 16.69245 | 2959 ft | 153 kts | 252° |
| 2026-05-05 10:46 | 41.11437 | 16.67849 | 3499 ft | 155 kts | 251° |
| 2026-05-05 10:46 | 41.11041 | 16.66348 | 3946 ft | 165 kts | 247° |
| 2026-05-05 10:47 | 41.10575 | 16.64715 | 4434 ft | 177 kts | 248° |
| 2026-05-05 10:47 | 41.10116 | 16.63014 | 4881 ft | 190 kts | 249° |
| 2026-05-05 10:47 | 41.09635 | 16.61234 | 5278 ft | 206 kts | 250° |
| 2026-05-05 10:47 | 41.09100 | 16.59236 | 5734 ft | 221 kts | 250° |
| 2026-05-05 10:48 | 41.08496 | 16.57088 | 6223 ft | 232 kts | 249° |
| 2026-05-05 10:48 | 41.07875 | 16.54960 | 6618 ft | 246 kts | 249° |
| 2026-05-05 10:48 | 41.07169 | 16.52505 | 7082 ft | 260 kts | 249° |
| 2026-05-05 10:48 | 41.06449 | 16.49976 | 7636 ft | 270 kts | 249° |
| 2026-05-05 10:49 | 41.05725 | 16.47446 | 8363 ft | 273 kts | 249° |
| 2026-05-05 10:49 | 41.04962 | 16.44785 | 9125 ft | 276 kts | 249° |
| 2026-05-05 10:49 | 41.04184 | 16.42070 | 9920 ft | 278 kts | 249° |
| 2026-05-05 10:49 | 41.03408 | 16.39363 | 10659 ft | 283 kts | 250° |
| 2026-05-05 10:50 | 41.02604 | 16.36558 | 11158 ft | 297 kts | 250° |
| 2026-05-05 10:50 | 41.01754 | 16.33589 | 11681 ft | 311 kts | 250° |
| 2026-05-05 10:50 | 41.00890 | 16.30582 | 12279 ft | 321 kts | 250° |
| 2026-05-05 10:50 | 41.00061 | 16.27700 | 12943 ft | 327 kts | 249° |
| 2026-05-05 10:51 | 40.99221 | 16.24781 | 13749 ft | 328 kts | 250° |
| 2026-05-05 10:51 | 40.98354 | 16.21752 | 14488 ft | 332 kts | 250° |
| 2026-05-05 10:51 | 40.97465 | 16.18631 | 15249 ft | 336 kts | 250° |
| 2026-05-05 10:51 | 40.96584 | 16.15537 | 15963 ft | 340 kts | 251° |
| 2026-05-05 10:52 | 40.95868 | 16.12303 | 16649 ft | 344 kts | 260° |
| 2026-05-05 10:52 | 40.95688 | 16.08806 | 17355 ft | 347 kts | 274° |
| 2026-05-05 10:52 | 40.96045 | 16.05455 | 18119 ft | 348 kts | 280° |
| 2026-05-05 10:52 | 40.96615 | 16.01923 | 18849 ft | 351 kts | 282° |
| 2026-05-05 10:53 | 40.97198 | 15.98636 | 19554 ft | 351 kts | 283° |
| 2026-05-05 10:53 | 40.97803 | 15.95238 | 20273 ft | 352 kts | 282° |
| 2026-05-05 10:53 | 40.98421 | 15.91704 | 20937 ft | 354 kts | 282° |
| 2026-05-05 10:53 | 40.99032 | 15.88148 | 21621 ft | 355 kts | 282° |
| 2026-05-05 10:54 | 40.99603 | 15.84782 | 22239 ft | 356 kts | 282° |
| 2026-05-05 10:54 | 41.00181 | 15.81344 | 22880 ft | 357 kts | 282° |
| 2026-05-05 10:54 | 41.00766 | 15.77853 | 23495 ft | 359 kts | 282° |
| 2026-05-05 10:54 | 41.01382 | 15.74385 | 24089 ft | 361 kts | 284° |
| 2026-05-05 10:55 | 41.02338 | 15.70782 | 24566 ft | 367 kts | 294° |
| 2026-05-05 10:55 | 41.03833 | 15.67448 | 25156 ft | 372 kts | 302° |
| 2026-05-05 10:55 | 41.05656 | 15.64263 | 25644 ft | 378 kts | 305° |
| 2026-05-05 10:55 | 41.07583 | 15.61183 | 26161 ft | 381 kts | 306° |
| 2026-05-05 10:56 | 41.09544 | 15.58140 | 26643 ft | 384 kts | 307° |
| 2026-05-05 10:56 | 41.11421 | 15.55227 | 27127 ft | 385 kts | 307° |
| 2026-05-05 10:56 | 41.13280 | 15.52323 | 27622 ft | 386 kts | 306° |
| 2026-05-05 10:56 | 41.15119 | 15.49435 | 28129 ft | 387 kts | 306° |
| 2026-05-05 10:57 | 41.16967 | 15.46510 | 28496 ft | 390 kts | 306° |
| 2026-05-05 10:57 | 41.18844 | 15.43523 | 28865 ft | 393 kts | 306° |
| 2026-05-05 10:57 | 41.20720 | 15.40526 | 29366 ft | 393 kts | 306° |
| 2026-05-05 10:57 | 41.22551 | 15.37592 | 29866 ft | 392 kts | 305° |
| 2026-05-05 10:58 | 41.24401 | 15.34624 | 30414 ft | 390 kts | 304° |
| 2026-05-05 10:58 | 41.26208 | 15.31720 | 30987 ft | 388 kts | 305° |
| 2026-05-05 10:58 | 41.28051 | 15.28757 | 31534 ft | 387 kts | 304° |
| 2026-05-05 10:58 | 41.29877 | 15.25818 | 32047 ft | 384 kts | 304° |
| 2026-05-05 10:59 | 41.31722 | 15.22848 | 32085 ft | 380 kts | 304° |
| 2026-05-05 10:59 | 41.35287 | 15.17095 | 32082 ft | 369 kts | 304° |
| 2026-05-05 11:00 | 41.38760 | 15.11472 | 32088 ft | 372 kts | 304° |
| 2026-05-05 11:00 | 41.42168 | 15.05947 | 32076 ft | 372 kts | 304° |
| 2026-05-05 11:01 | 41.45649 | 15.00296 | 32075 ft | 376 kts | 304° |
| 2026-05-05 11:01 | 41.49140 | 14.94605 | 32069 ft | 390 kts | 304° |
| 2026-05-05 11:02 | 41.52730 | 14.88753 | 32066 ft | 402 kts | 304° |
| 2026-05-05 11:02 | 41.56406 | 14.82770 | 32059 ft | 404 kts | 304° |
| 2026-05-05 11:03 | 41.60166 | 14.76636 | 32067 ft | 401 kts | 304° |
| 2026-05-05 11:03 | 41.63868 | 14.70577 | 32058 ft | 403 kts | 304° |
| 2026-05-05 11:04 | 41.67545 | 14.64536 | 32065 ft | 403 kts | 304° |
| 2026-05-05 11:04 | 41.71234 | 14.58466 | 32068 ft | 404 kts | 304° |
| 2026-05-05 11:05 | 41.74884 | 14.52450 | 32061 ft | 403 kts | 304° |
| 2026-05-05 11:05 | 41.78586 | 14.46335 | 32062 ft | 404 kts | 304° |
| 2026-05-05 11:06 | 41.82158 | 14.40425 | 32077 ft | 406 kts | 304° |
| 2026-05-05 11:06 | 41.85791 | 14.34400 | 32086 ft | 406 kts | 303° |
| 2026-05-05 11:07 | 41.89366 | 14.28460 | 32082 ft | 405 kts | 303° |
| 2026-05-05 11:07 | 41.92930 | 14.22529 | 32083 ft | 404 kts | 303° |
| 2026-05-05 11:08 | 41.96559 | 14.16473 | 32090 ft | 406 kts | 304° |
| 2026-05-05 11:08 | 42.00116 | 14.10529 | 32097 ft | 408 kts | 303° |
| 2026-05-05 11:09 | 42.03586 | 14.04320 | 32096 ft | 403 kts | 296° |
| 2026-05-05 11:09 | 42.06249 | 13.97360 | 32090 ft | 401 kts | 291° |
| 2026-05-05 11:10 | 42.08700 | 13.90392 | 32095 ft | 401 kts | 292° |
| 2026-05-05 11:10 | 42.11226 | 13.83555 | 32095 ft | 404 kts | 293° |
| 2026-05-05 11:11 | 42.13795 | 13.76826 | 32089 ft | 403 kts | 294° |
| 2026-05-05 11:11 | 42.16394 | 13.70088 | 32090 ft | 404 kts | 294° |
| 2026-05-05 11:12 | 42.19022 | 13.63284 | 32088 ft | 405 kts | 294° |
| 2026-05-05 11:12 | 42.21639 | 13.56500 | 32095 ft | 405 kts | 294° |
| 2026-05-05 11:13 | 42.24240 | 13.49737 | 32088 ft | 405 kts | 294° |
| 2026-05-05 11:13 | 42.26864 | 13.42895 | 32091 ft | 406 kts | 294° |
| 2026-05-05 11:14 | 42.29462 | 13.36104 | 32091 ft | 405 kts | 294° |
| 2026-05-05 11:14 | 42.32064 | 13.29287 | 32085 ft | 405 kts | 294° |
| 2026-05-05 11:15 | 42.34672 | 13.22433 | 32089 ft | 407 kts | 294° |
| 2026-05-05 11:15 | 42.37283 | 13.15559 | 32088 ft | 407 kts | 294° |
| 2026-05-05 11:16 | 42.39939 | 13.08549 | 32093 ft | 407 kts | 294° |
| 2026-05-05 11:16 | 42.42538 | 13.01671 | 32093 ft | 408 kts | 293° |
| 2026-05-05 11:17 | 42.45111 | 12.94850 | 32094 ft | 408 kts | 294° |
| 2026-05-05 11:17 | 42.47691 | 12.87992 | 32087 ft | 409 kts | 294° |
| 2026-05-05 11:18 | 42.50269 | 12.81123 | 32088 ft | 410 kts | 294° |
| 2026-05-05 11:18 | 42.52852 | 12.74227 | 32075 ft | 409 kts | 294° |
| 2026-05-05 11:19 | 42.55407 | 12.67386 | 32066 ft | 408 kts | 293° |
| 2026-05-05 11:19 | 42.57962 | 12.60528 | 32063 ft | 409 kts | 294° |
| 2026-05-05 11:20 | 42.60539 | 12.53597 | 32058 ft | 408 kts | 294° |
| 2026-05-05 11:20 | 42.63106 | 12.46669 | 32054 ft | 409 kts | 294° |
| 2026-05-05 11:21 | 42.65662 | 12.39761 | 32054 ft | 409 kts | 294° |
| 2026-05-05 11:21 | 42.68220 | 12.32826 | 32049 ft | 409 kts | 293° |
| 2026-05-05 11:22 | 42.70780 | 12.25869 | 32046 ft | 410 kts | 293° |
| 2026-05-05 11:22 | 42.73339 | 12.18900 | 32049 ft | 409 kts | 293° |
| 2026-05-05 11:23 | 42.75909 | 12.11883 | 32039 ft | 410 kts | 293° |
| 2026-05-05 11:23 | 42.78513 | 12.04754 | 32040 ft | 410 kts | 293° |
| 2026-05-05 11:24 | 42.81121 | 11.97591 | 32040 ft | 411 kts | 293° |
| 2026-05-05 11:24 | 42.83726 | 11.90428 | 31829 ft | 412 kts | 293° |
| 2026-05-05 11:24 | 42.85039 | 11.86811 | 31352 ft | 408 kts | 293° |
| 2026-05-05 11:25 | 42.86292 | 11.83356 | 30742 ft | 405 kts | 293° |
| 2026-05-05 11:25 | 42.87525 | 11.79956 | 30361 ft | 397 kts | 293° |
| 2026-05-05 11:25 | 42.88749 | 11.76576 | 29903 ft | 392 kts | 293° |
| 2026-05-05 11:25 | 42.89955 | 11.73236 | 29414 ft | 387 kts | 293° |
| 2026-05-05 11:26 | 42.91168 | 11.69873 | 28932 ft | 382 kts | 293° |
| 2026-05-05 11:26 | 42.92334 | 11.66629 | 28445 ft | 378 kts | 293° |
| 2026-05-05 11:26 | 42.93499 | 11.63388 | 27971 ft | 374 kts | 293° |
| 2026-05-05 11:26 | 42.94647 | 11.60189 | 27489 ft | 371 kts | 293° |
| 2026-05-05 11:27 | 42.95821 | 11.56916 | 27037 ft | 366 kts | 293° |
| 2026-05-05 11:27 | 42.97010 | 11.53591 | 26529 ft | 379 kts | 293° |
| 2026-05-05 11:27 | 42.98249 | 11.50112 | 25996 ft | 388 kts | 294° |
| 2026-05-05 11:27 | 42.99495 | 11.46621 | 25451 ft | 384 kts | 294° |
| 2026-05-05 11:28 | 43.00767 | 11.43071 | 24925 ft | 379 kts | 294° |
| 2026-05-05 11:28 | 43.02083 | 11.39393 | 24447 ft | 372 kts | 294° |
| 2026-05-05 11:28 | 43.03352 | 11.35841 | 23991 ft | 365 kts | 294° |
| 2026-05-05 11:28 | 43.04555 | 11.32462 | 23389 ft | 364 kts | 293° |
| 2026-05-05 11:29 | 43.05787 | 11.28991 | 22771 ft | 362 kts | 293° |
| 2026-05-05 11:29 | 43.07013 | 11.25537 | 22315 ft | 356 kts | 293° |
| 2026-05-05 11:29 | 43.08206 | 11.22170 | 21804 ft | 352 kts | 292° |
| 2026-05-05 11:29 | 43.09376 | 11.18867 | 21329 ft | 348 kts | 292° |
| 2026-05-05 11:30 | 43.10541 | 11.15566 | 20599 ft | 350 kts | 292° |
| 2026-05-05 11:30 | 43.11668 | 11.12374 | 20162 ft | 345 kts | 292° |
| 2026-05-05 11:30 | 43.12741 | 11.09335 | 19639 ft | 343 kts | 292° |
| 2026-05-05 11:30 | 43.13841 | 11.06212 | 19125 ft | 340 kts | 292° |
| 2026-05-05 11:31 | 43.14938 | 11.03098 | 18671 ft | 336 kts | 292° |
| 2026-05-05 11:31 | 43.16021 | 11.00016 | 18185 ft | 332 kts | 292° |
| 2026-05-05 11:31 | 43.17045 | 10.97100 | 17656 ft | 332 kts | 292° |
| 2026-05-05 11:31 | 43.18051 | 10.94231 | 17166 ft | 330 kts | 292° |
| 2026-05-05 11:32 | 43.19038 | 10.91412 | 16701 ft | 328 kts | 292° |
| 2026-05-05 11:32 | 43.20038 | 10.88556 | 16243 ft | 325 kts | 292° |
| 2026-05-05 11:32 | 43.21026 | 10.85731 | 15783 ft | 323 kts | 292° |
| 2026-05-05 11:32 | 43.21995 | 10.82957 | 15344 ft | 320 kts | 292° |
| 2026-05-05 11:33 | 43.22963 | 10.80187 | 14889 ft | 317 kts | 291° |
| 2026-05-05 11:33 | 43.23928 | 10.77429 | 14440 ft | 315 kts | 291° |
| 2026-05-05 11:33 | 43.24902 | 10.74651 | 13955 ft | 314 kts | 291° |
| 2026-05-05 11:33 | 43.25851 | 10.71943 | 13482 ft | 312 kts | 291° |
| 2026-05-05 11:34 | 43.26799 | 10.69235 | 13024 ft | 310 kts | 291° |
| 2026-05-05 11:34 | 43.27716 | 10.66594 | 12582 ft | 307 kts | 291° |
| 2026-05-05 11:34 | 43.28467 | 10.63864 | 12161 ft | 300 kts | 282° |
| 2026-05-05 11:34 | 43.28890 | 10.61059 | 11796 ft | 294 kts | 276° |
| 2026-05-05 11:35 | 43.29158 | 10.58339 | 11623 ft | 282 kts | 274° |
| 2026-05-05 11:35 | 43.29400 | 10.55711 | 11500 ft | 271 kts | 275° |
| 2026-05-05 11:35 | 43.29655 | 10.53180 | 11273 ft | 264 kts | 276° |
| 2026-05-05 11:35 | 43.30098 | 10.50744 | 10995 ft | 263 kts | 290° |
| 2026-05-05 11:36 | 43.31047 | 10.48587 | 10604 ft | 268 kts | 303° |
| 2026-05-05 11:36 | 43.32224 | 10.46584 | 10147 ft | 271 kts | 306° |
| 2026-05-05 11:36 | 43.33427 | 10.44569 | 9771 ft | 270 kts | 304° |
| 2026-05-05 11:36 | 43.34577 | 10.42559 | 9517 ft | 264 kts | 303° |
| 2026-05-05 11:37 | 43.35657 | 10.40607 | 9358 ft | 254 kts | 303° |
| 2026-05-05 11:37 | 43.36704 | 10.38686 | 9195 ft | 246 kts | 302° |
| 2026-05-05 11:37 | 43.37720 | 10.36819 | 8914 ft | 244 kts | 302° |
| 2026-05-05 11:37 | 43.38717 | 10.34989 | 8773 ft | 235 kts | 301° |
| 2026-05-05 11:38 | 43.39680 | 10.33199 | 8531 ft | 231 kts | 298° |
| 2026-05-05 11:38 | 43.40365 | 10.31228 | 8192 ft | 225 kts | 277° |
| 2026-05-05 11:38 | 43.40270 | 10.29042 | 7840 ft | 220 kts | 249° |
| 2026-05-05 11:38 | 43.39555 | 10.27168 | 7547 ft | 218 kts | 233° |
| 2026-05-05 11:39 | 43.38483 | 10.25666 | 7214 ft | 219 kts | 218° |
| 2026-05-05 11:39 | 43.37249 | 10.24395 | 6881 ft | 220 kts | 224° |
| 2026-05-05 11:39 | 43.36438 | 10.22589 | 6513 ft | 221 kts | 258° |
| 2026-05-05 11:39 | 43.36562 | 10.20325 | 6203 ft | 222 kts | 287° |
| 2026-05-05 11:40 | 43.37329 | 10.18396 | 5887 ft | 225 kts | 302° |
| 2026-05-05 11:40 | 43.38285 | 10.16639 | 5617 ft | 224 kts | 304° |
| 2026-05-05 11:40 | 43.39262 | 10.14895 | 5389 ft | 222 kts | 307° |
| 2026-05-05 11:40 | 43.40463 | 10.13478 | 5199 ft | 228 kts | 333° |
| 2026-05-05 11:41 | 43.42202 | 10.13154 | 5014 ft | 236 kts | 10° |
| 2026-05-05 11:41 | 43.43743 | 10.14096 | 4855 ft | 239 kts | 34° |
| 2026-05-05 11:41 | 43.45074 | 10.15455 | 4698 ft | 239 kts | 36° |
| 2026-05-05 11:41 | 43.46405 | 10.16834 | 4499 ft | 240 kts | 35° |
| 2026-05-05 11:42 | 43.47733 | 10.18196 | 4296 ft | 236 kts | 36° |
| 2026-05-05 11:42 | 43.49027 | 10.19582 | 4105 ft | 233 kts | 37° |
| 2026-05-05 11:42 | 43.50289 | 10.20917 | 3910 ft | 228 kts | 35° |
| 2026-05-05 11:42 | 43.51549 | 10.22203 | 3711 ft | 222 kts | 34° |
| 2026-05-05 11:43 | 43.52779 | 10.23448 | 3546 ft | 213 kts | 35° |
| 2026-05-05 11:43 | 43.53961 | 10.24654 | 3296 ft | 210 kts | 36° |
| 2026-05-05 11:43 | 43.55133 | 10.25852 | 3029 ft | 206 kts | 36° |
| 2026-05-05 11:43 | 43.56280 | 10.27024 | 2716 ft | 204 kts | 36° |
| 2026-05-05 11:44 | 43.57423 | 10.28194 | 2440 ft | 200 kts | 36° |
| 2026-05-05 11:44 | 43.58514 | 10.29309 | 2170 ft | 189 kts | 37° |
| 2026-05-05 11:44 | 43.59546 | 10.30365 | 1920 ft | 178 kts | 37° |
| 2026-05-05 11:44 | 43.60523 | 10.31367 | 1691 ft | 175 kts | 37° |
| 2026-05-05 11:45 | 43.61488 | 10.32356 | 1498 ft | 171 kts | 37° |
| 2026-05-05 11:45 | 43.62429 | 10.33324 | 1212 ft | 166 kts | 37° |
| 2026-05-05 11:45 | 43.63362 | 10.34281 | 1017 ft | 165 kts | 37° |
| 2026-05-05 11:45 | 43.64301 | 10.35243 | 792 ft | 166 kts | 37° |
| 2026-05-05 11:46 | 43.65232 | 10.36200 | 568 ft | 165 kts | 37° |
| 2026-05-05 11:46 | 43.66151 | 10.37140 | 352 ft | 164 kts | 37° |
| 2026-05-05 11:46 | 43.67067 | 10.38093 | 130 ft | 163 kts | 36° |
| 2026-05-05 11:46 | 43.67966 | 10.39005 | 20 ft | 154 kts | 36° |
| 2026-05-05 11:47 | 43.68700 | 10.39757 | 15 ft | 99 kts | 37° |
| 2026-05-05 11:47 | 43.69095 | 10.40167 | 17 ft | 45 kts | 37° |
| 2026-05-05 11:47 | 43.69231 | 10.40306 | 17 ft | 11 kts | 22° |
| 2026-05-05 11:47 | 43.69295 | 10.40267 | 17 ft | 10 kts | 308° |
| 2026-05-05 11:48 | 43.69373 | 10.40125 | 18 ft | 8 kts | 315° |
| 2026-05-05 11:48 | 43.69427 | 10.40098 | 18 ft | 9 kts | 348° |
| 2026-05-05 11:48 | 43.69506 | 10.40080 | 18 ft | 12 kts | 353° |
| 2026-05-05 11:49 | 43.69591 | 10.40064 | 19 ft | 11 kts | 351° |
| 2026-05-05 11:49 | 43.69663 | 10.40047 | 19 ft | 9 kts | 333° |
| 2026-05-05 11:49 | 43.69689 | 10.39969 | 19 ft | 8 kts | 280° |
| 2026-05-05 11:49 | 43.69698 | 10.39888 | 19 ft | 8 kts | 278° |
| 2026-05-05 11:50 | 43.69708 | 10.39846 | 19 ft | 2 kts | 322° |
| 2026-05-05 11:50 | 43.69720 | 10.39833 | 19 ft | 1 kts | 322° |
| 2026-05-05 11:50 | 43.69725 | 10.39829 | 20 ft | 0 kts | 322° |
| 2026-05-05 11:50 | 43.69733 | 10.39820 | 20 ft | 2 kts | 322° |
| 2026-05-05 11:51 | 43.69747 | 10.39805 | 20 ft | 2 kts | 323° |
| 2026-05-05 11:51 | 43.69761 | 10.39792 | 20 ft | 0 kts | 323° |